Terminal Aerodrome Forecast
Issued by NWS

Home | Current Version | Previous Version | Text Only | Print | Product List | Glossary On
Versions: 1 2 3 4 5 6 7 8 9 10 11 12 13 14 15 16 17
000
FTUS46 KSGX 041734
TAFONT
TAF
KONT 041734Z 0418/0524 VRB06KT P6SM BKN035
     FM042000 25010G18KT P6SM SKC
     FM050400 25006KT P6SM SCT020
     FM050700 VRB03KT P6SM BKN020
     FM051600 VRB05KT P6SM SCT018
     FM052000 25010G18KT P6SM SKC=

USA.gov is the U.S. government's official web portal to all federal, state and local government web resources and services.